Aeroporto :
LOGIN :

Iscrizione | Disclaimer

   EN    FR    IT 

 










Sommario :    VFR   VFR Marginale   IFR   IFR Intensivo   IFR Molto Intensivo
Visibilità : 
Base nubi : 
>= 8 km
>= 3000ft
5 / 8 km
1000 / 3000 ft
1500m / 5 km
500 / 1000 ft
800 / 1500m
200 / 500 ft
< 800m
< 200 ft
Simboli :   Temporali  Nebbia  Neve Forte  Precipitazioni Forti  Vento > 20 kt
SIGMETs :   Varie  Temporali  Ghiacco  Turbolenza  Onda orograficha  Ceneri Vulcaniche






- Altitudine del aeroporto : 505 ft
- Codice IATA : SXB


LFST - Strasbourg

ULTIMO METAR :
  • 230230Z AUTO 02006KT 350V050 5000 BR OVC006 M02/M03 Q1034 TEMPO 0500 FZFG VV///

METARs OBSOLETI :
  • 230200Z AUTO 03007KT 5000 BR OVC006 M02/M03 Q1034 TEMPO 0500 FZFG VV///
  • 230130Z AUTO 04007KT 5000 BR OVC006 M01/M02 Q1034 TEMPO 0500 FZFG VV///
  • 230100Z AUTO 04005KT 360V060 5000 BR OVC006 M02/M03 Q1035 TEMPO 0500 FZFG VV///
  • 230030Z AUTO 04008KT 5000 BR OVC006 M02/M03 Q1035 TEMPO 0500 FZFG VV///
  • 230000Z AUTO 04009KT 5000 BR OVC007 M02/M03 Q1035 TEMPO 0500 FZFG VV///

TAF TAF LFST
Valido dal 23 a 00 ore il 24 a 00 ore UTC


222300Z 2300/2324 36004KT 6000 OVC010
TEMPO 2300/2324 4000 BR OVC004
PROB40
TEMPO 2300/2310 0500 FZFG VV///
PROB40
TEMPO 2318/2324 0500 FZFG VV///



MetMap, La meteo Aeronautica in un colpo d'occhio ! - Copyright ORBIFLY Dicembre 2007 - Disclaimer

ORBIFLY MET'MAP TEAM :

Programmazione e sviluppo : Alexandra Zaïnal
Concezione : Baudouin d'Aumeries
Aiuto per la programmazione : Marc-Olivier Méhu
Supporto tecnico e logistico : Manuel Goepfert
Aiuto per la traduzione : Arnaldo La Scala

Contatto : metmap@orbifly.com




FONTI E CREDITI :

   NOAA